Fort Mill, South Carolina
Current Conditions -  °F | °C
As of 3:54 AM on Monday 24 Nov 2014 (Local Time) from KUZA Reporting Station
Broken Clouds Broken Clouds  
Wind Chill: 61°   Ceiling: 3100
Heat Index: 61°   Visibility: 10mi
Dew Point: 56°   Wind: 14mph
Humidity: 83%   Direction: 230°SW
Pressure: 29.77"   Gusts: NA
Location:  35.01°N, 80.94°W
Report Text: KUZA 240854Z AUTO 23012KT 10SM BKN031 16/13 A2977 RMK AO2 SLP077 T01610133 51009
Loading
Personal Weather Stations






























Interactive Weather Map New forecast layout! Learn more

10-Day Weather Forecast

Advertisements
Track Severe Weather on mobile